sensor_id;sensor_type;location;lat;lon;timestamp;temperature;humidity
20722;DHT22;10522;52.198;9.890;2022-07-17T00:00:38;10.60;99.90
20722;DHT22;10522;52.198;9.890;2022-07-17T00:03:08;10.70;99.90
20722;DHT22;10522;52.198;9.890;2022-07-17T00:05:34;10.70;99.90
20722;DHT22;10522;52.198;9.890;2022-07-17T00:07:59;10.70;99.90
20722;DHT22;10522;52.198;9.890;2022-07-17T00:10:25;10.70;99.90
20722;DHT22;10522;52.198;9.890;2022-07-17T00:12:50;10.40;99.90
20722;DHT22;10522;52.198;9.890;2022-07-17T00:15:16;10.40;99.90
20722;DHT22;10522;52.198;9.890;2022-07-17T00:17:41;10.50;99.90
20722;DHT22;10522;52.198;9.890;2022-07-17T00:20:08;10.40;99.90
20722;DHT22;10522;52.198;9.890;2022-07-17T00:22:34;10.30;99.90
20722;DHT22;10522;52.198;9.890;2022-07-17T00:25:00;10.40;99.90
20722;DHT22;10522;52.198;9.890;2022-07-17T00:27:25;10.50;99.90
20722;DHT22;10522;52.198;9.890;2022-07-17T00:29:51;10.50;99.90
20722;DHT22;10522;52.198;9.890;2022-07-17T00:32:16;10.50;99.90
20722;DHT22;10522;52.198;9.890;2022-07-17T00:34:42;10.50;99.90
20722;DHT22;10522;52.198;9.890;2022-07-17T00:37:07;10.60;99.90
20722;DHT22;10522;52.198;9.890;2022-07-17T00:39:33;10.50;99.90
20722;DHT22;10522;52.198;9.890;2022-07-17T00:41:59;10.50;99.90
20722;DHT22;10522;52.198;9.890;2022-07-17T00:44:26;10.50;99.90
20722;DHT22;10522;52.198;9.890;2022-07-17T00:46:52;10.50;99.90
20722;DHT22;10522;52.198;9.890;2022-07-17T00:49:18;10.40;99.90
20722;DHT22;10522;52.198;9.890;2022-07-17T00:51:43;10.30;99.90
20722;DHT22;10522;52.198;9.890;2022-07-17T00:54:11;10.20;99.90
20722;DHT22;10522;52.198;9.890;2022-07-17T00:56:37;10.10;99.90
20722;DHT22;10522;52.198;9.890;2022-07-17T00:59:05;10.10;99.90
20722;DHT22;10522;52.198;9.890;2022-07-17T01:01:31;10.00;99.90
20722;DHT22;10522;52.198;9.890;2022-07-17T01:03:57;10.00;99.90
20722;DHT22;10522;52.198;9.890;2022-07-17T01:06:23;9.80;99.90
20722;DHT22;10522;52.198;9.890;2022-07-17T01:08:48;9.80;99.90
20722;DHT22;10522;52.198;9.890;2022-07-17T01:11:14;9.90;99.90
20722;DHT22;10522;52.198;9.890;2022-07-17T01:13:39;9.90;99.90
20722;DHT22;10522;52.198;9.890;2022-07-17T01:16:05;9.80;99.90
20722;DHT22;10522;52.198;9.890;2022-07-17T01:18:31;9.70;99.90
20722;DHT22;10522;52.198;9.890;2022-07-17T01:21:04;9.80;99.90
20722;DHT22;10522;52.198;9.890;2022-07-17T01:23:30;9.80;99.90
20722;DHT22;10522;52.198;9.890;2022-07-17T01:25:55;9.90;99.90
20722;DHT22;10522;52.198;9.890;2022-07-17T01:28:21;10.00;99.90
20722;DHT22;10522;52.198;9.890;2022-07-17T01:30:48;10.10;99.90
20722;DHT22;10522;52.198;9.890;2022-07-17T01:33:14;10.20;99.90
20722;DHT22;10522;52.198;9.890;2022-07-17T01:35:40;10.20;99.90
20722;DHT22;10522;52.198;9.890;2022-07-17T01:38:05;10.20;99.90
20722;DHT22;10522;52.198;9.890;2022-07-17T01:40:31;10.20;99.90
20722;DHT22;10522;52.198;9.890;2022-07-17T01:42:56;10.20;99.90
20722;DHT22;10522;52.198;9.890;2022-07-17T01:45:22;10.10;99.90
20722;DHT22;10522;52.198;9.890;2022-07-17T01:47:47;10.20;99.90
20722;DHT22;10522;52.198;9.890;2022-07-17T01:50:14;10.20;99.90
20722;DHT22;10522;52.198;9.890;2022-07-17T01:52:41;9.90;99.90
20722;DHT22;10522;52.198;9.890;2022-07-17T01:55:08;9.80;99.90
20722;DHT22;10522;52.198;9.890;2022-07-17T01:57:34;9.70;99.90
20722;DHT22;10522;52.198;9.890;2022-07-17T02:00:00;9.60;99.90
20722;DHT22;10522;52.198;9.890;2022-07-17T02:02:26;9.60;99.90
20722;DHT22;10522;52.198;9.890;2022-07-17T02:04:51;9.50;99.90
20722;DHT22;10522;52.198;9.890;2022-07-17T02:07:17;9.50;99.90
20722;DHT22;10522;52.198;9.890;2022-07-17T02:09:42;9.50;99.90
20722;DHT22;10522;52.198;9.890;2022-07-17T02:12:08;9.40;99.90
20722;DHT22;10522;52.198;9.890;2022-07-17T02:14:34;9.40;99.90
20722;DHT22;10522;52.198;9.890;2022-07-17T02:17:00;9.50;99.90
20722;DHT22;10522;52.198;9.890;2022-07-17T02:19:25;9.70;99.90
20722;DHT22;10522;52.198;9.890;2022-07-17T02:21:51;9.70;99.90
20722;DHT22;10522;52.198;9.890;2022-07-17T02:24:16;9.60;99.90
20722;DHT22;10522;52.198;9.890;2022-07-17T02:26:42;9.50;99.90
20722;DHT22;10522;52.198;9.890;2022-07-17T02:29:09;9.40;99.90
20722;DHT22;10522;52.198;9.890;2022-07-17T02:31:34;9.40;99.90
20722;DHT22;10522;52.198;9.890;2022-07-17T02:34:00;9.20;99.90
20722;DHT22;10522;52.198;9.890;2022-07-17T02:36:25;9.10;99.90
20722;DHT22;10522;52.198;9.890;2022-07-17T02:38:52;8.90;99.90
20722;DHT22;10522;52.198;9.890;2022-07-17T02:41:17;8.90;99.90
20722;DHT22;10522;52.198;9.890;2022-07-17T02:43:43;8.90;99.90
20722;DHT22;10522;52.198;9.890;2022-07-17T02:46:09;8.90;99.90
20722;DHT22;10522;52.198;9.890;2022-07-17T02:48:34;8.80;99.90
20722;DHT22;10522;52.198;9.890;2022-07-17T02:51:00;8.80;99.90
20722;DHT22;10522;52.198;9.890;2022-07-17T02:53:25;8.80;99.90
20722;DHT22;10522;52.198;9.890;2022-07-17T02:55:52;8.70;99.90
20722;DHT22;10522;52.198;9.890;2022-07-17T02:58:17;8.60;99.90
20722;DHT22;10522;52.198;9.890;2022-07-17T03:00:43;8.60;99.90
20722;DHT22;10522;52.198;9.890;2022-07-17T03:03:08;8.40;99.90
20722;DHT22;10522;52.198;9.890;2022-07-17T03:05:34;8.40;99.90
20722;DHT22;10522;52.198;9.890;2022-07-17T03:07:59;8.40;99.90
20722;DHT22;10522;52.198;9.890;2022-07-17T03:10:25;8.50;99.90
20722;DHT22;10522;52.198;9.890;2022-07-17T03:12:50;8.50;99.90
20722;DHT22;10522;52.198;9.890;2022-07-17T03:15:17;8.50;99.90
20722;DHT22;10522;52.198;9.890;2022-07-17T03:17:42;8.50;99.90
20722;DHT22;10522;52.198;9.890;2022-07-17T03:20:09;8.40;99.90
20722;DHT22;10522;52.198;9.890;2022-07-17T03:22:35;8.40;99.90
20722;DHT22;10522;52.198;9.890;2022-07-17T03:25:01;8.40;99.90
20722;DHT22;10522;52.198;9.890;2022-07-17T03:27:26;8.30;99.90
20722;DHT22;10522;52.198;9.890;2022-07-17T03:29:53;8.30;99.90
20722;DHT22;10522;52.198;9.890;2022-07-17T03:32:19;8.20;99.90
20722;DHT22;10522;52.198;9.890;2022-07-17T03:34:45;8.20;99.90
20722;DHT22;10522;52.198;9.890;2022-07-17T03:37:10;8.30;99.90
20722;DHT22;10522;52.198;9.890;2022-07-17T03:39:36;8.20;99.90
20722;DHT22;10522;52.198;9.890;2022-07-17T03:42:02;8.20;99.90
20722;DHT22;10522;52.198;9.890;2022-07-17T03:44:27;8.00;99.90
20722;DHT22;10522;52.198;9.890;2022-07-17T03:46:53;8.10;99.90
20722;DHT22;10522;52.198;9.890;2022-07-17T03:49:18;8.20;99.90
20722;DHT22;10522;52.198;9.890;2022-07-17T03:51:44;8.20;99.90
20722;DHT22;10522;52.198;9.890;2022-07-17T03:54:09;8.30;99.90
20722;DHT22;10522;52.198;9.890;2022-07-17T03:56:35;8.30;99.90
20722;DHT22;10522;52.198;9.890;2022-07-17T03:59:00;8.30;99.90
20722;DHT22;10522;52.198;9.890;2022-07-17T04:01:26;8.40;99.90
20722;DHT22;10522;52.198;9.890;2022-07-17T04:03:51;8.40;99.90
20722;DHT22;10522;52.198;9.890;2022-07-17T04:06:17;8.30;99.90
20722;DHT22;10522;52.198;9.890;2022-07-17T04:08:42;8.30;99.90
20722;DHT22;10522;52.198;9.890;2022-07-17T04:11:08;8.30;99.90
20722;DHT22;10522;52.198;9.890;2022-07-17T04:13:33;8.40;99.90
20722;DHT22;10522;52.198;9.890;2022-07-17T04:15:59;8.50;99.90
20722;DHT22;10522;52.198;9.890;2022-07-17T04:18:34;8.70;99.90
20722;DHT22;10522;52.198;9.890;2022-07-17T04:21:02;8.90;99.90
20722;DHT22;10522;52.198;9.890;2022-07-17T04:23:28;9.00;99.90
20722;DHT22;10522;52.198;9.890;2022-07-17T04:25:54;9.20;99.90
20722;DHT22;10522;52.198;9.890;2022-07-17T04:28:20;9.30;99.90
20722;DHT22;10522;52.198;9.890;2022-07-17T04:30:46;9.50;99.90
20722;DHT22;10522;52.198;9.890;2022-07-17T04:33:12;9.70;99.90
20722;DHT22;10522;52.198;9.890;2022-07-17T04:35:38;9.90;99.90
20722;DHT22;10522;52.198;9.890;2022-07-17T04:38:06;10.10;99.90
20722;DHT22;10522;52.198;9.890;2022-07-17T04:40:32;10.20;99.90
20722;DHT22;10522;52.198;9.890;2022-07-17T04:42:58;10.40;99.90
20722;DHT22;10522;52.198;9.890;2022-07-17T04:45:24;10.70;99.90
20722;DHT22;10522;52.198;9.890;2022-07-17T04:47:50;11.20;99.90
20722;DHT22;10522;52.198;9.890;2022-07-17T04:50:16;11.50;99.90
20722;DHT22;10522;52.198;9.890;2022-07-17T04:52:41;11.70;99.90
20722;DHT22;10522;52.198;9.890;2022-07-17T04:55:07;12.00;99.90
20722;DHT22;10522;52.198;9.890;2022-07-17T04:57:33;12.20;99.90
20722;DHT22;10522;52.198;9.890;2022-07-17T04:59:58;12.40;99.90
20722;DHT22;10522;52.198;9.890;2022-07-17T05:02:24;12.50;99.90
20722;DHT22;10522;52.198;9.890;2022-07-17T05:04:49;12.60;99.90
20722;DHT22;10522;52.198;9.890;2022-07-17T05:07:15;12.70;99.90
20722;DHT22;10522;52.198;9.890;2022-07-17T05:09:41;12.80;99.90
20722;DHT22;10522;52.198;9.890;2022-07-17T05:12:07;12.80;99.90
20722;DHT22;10522;52.198;9.890;2022-07-17T05:14:33;12.70;99.90
20722;DHT22;10522;52.198;9.890;2022-07-17T05:16:59;12.50;99.90
20722;DHT22;10522;52.198;9.890;2022-07-17T05:19:24;12.30;99.90
20722;DHT22;10522;52.198;9.890;2022-07-17T05:21:50;12.10;99.90
20722;DHT22;10522;52.198;9.890;2022-07-17T05:24:16;12.00;99.90
20722;DHT22;10522;52.198;9.890;2022-07-17T05:26:41;12.00;99.90
20722;DHT22;10522;52.198;9.890;2022-07-17T05:29:07;12.00;99.90
20722;DHT22;10522;52.198;9.890;2022-07-17T05:31:33;12.20;99.90
20722;DHT22;10522;52.198;9.890;2022-07-17T05:33:58;12.20;99.90
20722;DHT22;10522;52.198;9.890;2022-07-17T05:36:24;12.20;99.90
20722;DHT22;10522;52.198;9.890;2022-07-17T05:38:49;12.20;99.90
20722;DHT22;10522;52.198;9.890;2022-07-17T05:41:15;12.30;99.90
20722;DHT22;10522;52.198;9.890;2022-07-17T05:43:40;12.40;99.90
20722;DHT22;10522;52.198;9.890;2022-07-17T05:46:06;12.50;99.90
20722;DHT22;10522;52.198;9.890;2022-07-17T05:48:31;12.70;99.90
20722;DHT22;10522;52.198;9.890;2022-07-17T05:50:57;12.80;99.90
20722;DHT22;10522;52.198;9.890;2022-07-17T05:53:23;12.90;99.90
20722;DHT22;10522;52.198;9.890;2022-07-17T05:55:49;13.00;99.90
20722;DHT22;10522;52.198;9.890;2022-07-17T05:58:15;13.10;99.90
20722;DHT22;10522;52.198;9.890;2022-07-17T06:00:41;13.20;99.90
20722;DHT22;10522;52.198;9.890;2022-07-17T06:03:06;13.40;99.90
20722;DHT22;10522;52.198;9.890;2022-07-17T06:05:32;13.50;99.90
20722;DHT22;10522;52.198;9.890;2022-07-17T06:07:58;13.70;99.90
20722;DHT22;10522;52.198;9.890;2022-07-17T06:10:24;13.70;99.90
20722;DHT22;10522;52.198;9.890;2022-07-17T06:12:51;13.80;99.90
20722;DHT22;10522;52.198;9.890;2022-07-17T06:15:21;13.90;99.90
20722;DHT22;10522;52.198;9.890;2022-07-17T06:17:47;14.00;99.90
20722;DHT22;10522;52.198;9.890;2022-07-17T06:20:13;14.10;99.90
20722;DHT22;10522;52.198;9.890;2022-07-17T06:22:40;14.10;99.90
20722;DHT22;10522;52.198;9.890;2022-07-17T06:25:06;14.20;99.90
20722;DHT22;10522;52.198;9.890;2022-07-17T06:27:32;14.30;99.90
20722;DHT22;10522;52.198;9.890;2022-07-17T06:29:58;14.60;99.90
20722;DHT22;10522;52.198;9.890;2022-07-17T06:32:24;14.80;99.90
20722;DHT22;10522;52.198;9.890;2022-07-17T06:34:50;14.90;99.90
20722;DHT22;10522;52.198;9.890;2022-07-17T06:37:15;14.80;99.90
20722;DHT22;10522;52.198;9.890;2022-07-17T06:39:41;14.80;99.90
20722;DHT22;10522;52.198;9.890;2022-07-17T06:42:06;14.90;99.90
20722;DHT22;10522;52.198;9.890;2022-07-17T06:44:33;15.40;99.90
20722;DHT22;10522;52.198;9.890;2022-07-17T06:47:00;15.70;99.90
20722;DHT22;10522;52.198;9.890;2022-07-17T06:49:25;15.90;99.90
20722;DHT22;10522;52.198;9.890;2022-07-17T06:51:52;16.10;99.90
20722;DHT22;10522;52.198;9.890;2022-07-17T06:54:18;16.30;99.90
20722;DHT22;10522;52.198;9.890;2022-07-17T06:56:43;16.40;99.90
20722;DHT22;10522;52.198;9.890;2022-07-17T06:59:11;16.50;99.90
20722;DHT22;10522;52.198;9.890;2022-07-17T07:01:38;16.50;99.90
20722;DHT22;10522;52.198;9.890;2022-07-17T07:04:04;16.80;99.90
20722;DHT22;10522;52.198;9.890;2022-07-17T07:06:30;17.00;99.90
20722;DHT22;10522;52.198;9.890;2022-07-17T07:08:56;17.20;99.90
20722;DHT22;10522;52.198;9.890;2022-07-17T07:11:23;17.20;99.90
20722;DHT22;10522;52.198;9.890;2022-07-17T07:13:49;17.30;99.90
20722;DHT22;10522;52.198;9.890;2022-07-17T07:16:15;17.30;99.90
20722;DHT22;10522;52.198;9.890;2022-07-17T07:18:41;17.70;99.90
20722;DHT22;10522;52.198;9.890;2022-07-17T07:21:06;17.90;99.90
20722;DHT22;10522;52.198;9.890;2022-07-17T07:23:32;17.80;99.90
20722;DHT22;10522;52.198;9.890;2022-07-17T07:25:57;17.80;99.90
20722;DHT22;10522;52.198;9.890;2022-07-17T07:28:23;17.40;99.90
20722;DHT22;10522;52.198;9.890;2022-07-17T07:30:48;17.40;99.90
20722;DHT22;10522;52.198;9.890;2022-07-17T07:33:14;17.40;99.90
20722;DHT22;10522;52.198;9.890;2022-07-17T07:35:41;17.50;99.90
20722;DHT22;10522;52.198;9.890;2022-07-17T07:38:08;17.80;99.90
20722;DHT22;10522;52.198;9.890;2022-07-17T07:40:34;17.90;99.90
20722;DHT22;10522;52.198;9.890;2022-07-17T07:43:00;18.10;99.90
20722;DHT22;10522;52.198;9.890;2022-07-17T07:45:25;18.20;99.90
20722;DHT22;10522;52.198;9.890;2022-07-17T07:47:51;18.40;99.90
20722;DHT22;10522;52.198;9.890;2022-07-17T07:50:18;18.40;99.90
20722;DHT22;10522;52.198;9.890;2022-07-17T07:52:43;18.60;99.90
20722;DHT22;10522;52.198;9.890;2022-07-17T07:55:11;18.70;99.90
20722;DHT22;10522;52.198;9.890;2022-07-17T07:57:36;18.60;99.90
20722;DHT22;10522;52.198;9.890;2022-07-17T08:00:04;18.90;99.90
20722;DHT22;10522;52.198;9.890;2022-07-17T08:02:30;19.10;99.90
20722;DHT22;10522;52.198;9.890;2022-07-17T08:04:55;19.00;99.90
20722;DHT22;10522;52.198;9.890;2022-07-17T08:07:21;19.40;99.90
20722;DHT22;10522;52.198;9.890;2022-07-17T08:09:46;18.80;99.90
20722;DHT22;10522;52.198;9.890;2022-07-17T08:12:15;18.60;99.90
20722;DHT22;10522;52.198;9.890;2022-07-17T08:14:40;18.20;99.90
20722;DHT22;10522;52.198;9.890;2022-07-17T08:17:06;18.60;99.90
20722;DHT22;10522;52.198;9.890;2022-07-17T08:19:31;19.20;99.90
20722;DHT22;10522;52.198;9.890;2022-07-17T08:21:58;19.80;99.90
20722;DHT22;10522;52.198;9.890;2022-07-17T08:24:27;19.60;99.90
20722;DHT22;10522;52.198;9.890;2022-07-17T08:26:53;19.30;99.90
20722;DHT22;10522;52.198;9.890;2022-07-17T08:29:19;18.90;99.90
20722;DHT22;10522;52.198;9.890;2022-07-17T08:31:44;18.90;99.90
20722;DHT22;10522;52.198;9.890;2022-07-17T08:34:11;19.30;99.90
20722;DHT22;10522;52.198;9.890;2022-07-17T08:36:38;19.80;99.90
20722;DHT22;10522;52.198;9.890;2022-07-17T08:39:04;19.90;99.90
20722;DHT22;10522;52.198;9.890;2022-07-17T08:41:30;19.80;99.90
20722;DHT22;10522;52.198;9.890;2022-07-17T08:43:55;19.80;99.90
20722;DHT22;10522;52.198;9.890;2022-07-17T08:46:26;19.90;99.90
20722;DHT22;10522;52.198;9.890;2022-07-17T08:48:56;20.10;99.90
20722;DHT22;10522;52.198;9.890;2022-07-17T08:51:25;20.70;99.90
20722;DHT22;10522;52.198;9.890;2022-07-17T08:53:52;20.30;99.90
20722;DHT22;10522;52.198;9.890;2022-07-17T08:56:17;20.60;99.90
20722;DHT22;10522;52.198;9.890;2022-07-17T08:58:43;20.80;99.90
20722;DHT22;10522;52.198;9.890;2022-07-17T09:01:09;21.00;99.90
20722;DHT22;10522;52.198;9.890;2022-07-17T09:03:34;20.70;99.90
20722;DHT22;10522;52.198;9.890;2022-07-17T09:06:01;20.60;99.90
20722;DHT22;10522;52.198;9.890;2022-07-17T09:08:27;21.00;99.90
20722;DHT22;10522;52.198;9.890;2022-07-17T09:10:58;20.90;99.90
20722;DHT22;10522;52.198;9.890;2022-07-17T09:13:25;20.90;99.90
20722;DHT22;10522;52.198;9.890;2022-07-17T09:15:53;21.40;99.90
20722;DHT22;10522;52.198;9.890;2022-07-17T09:18:20;21.60;99.90
20722;DHT22;10522;52.198;9.890;2022-07-17T09:20:54;21.70;99.90
20722;DHT22;10522;52.198;9.890;2022-07-17T09:23:21;21.60;99.90
20722;DHT22;10522;52.198;9.890;2022-07-17T09:25:49;21.50;99.90
20722;DHT22;10522;52.198;9.890;2022-07-17T09:28:16;21.40;99.90
20722;DHT22;10522;52.198;9.890;2022-07-17T09:30:44;21.50;99.90
20722;DHT22;10522;52.198;9.890;2022-07-17T09:33:20;21.50;99.90
20722;DHT22;10522;52.198;9.890;2022-07-17T09:35:47;21.50;99.90
20722;DHT22;10522;52.198;9.890;2022-07-17T09:38:24;21.30;99.90
20722;DHT22;10522;52.198;9.890;2022-07-17T09:40:49;21.40;99.90
20722;DHT22;10522;52.198;9.890;2022-07-17T09:43:55;21.20;99.90
20722;DHT22;10522;52.198;9.890;2022-07-17T09:46:28;21.40;99.90
20722;DHT22;10522;52.198;9.890;2022-07-17T09:48:55;21.50;99.90
20722;DHT22;10522;52.198;9.890;2022-07-17T09:51:25;21.90;99.90
20722;DHT22;10522;52.198;9.890;2022-07-17T09:53:53;22.00;99.90
20722;DHT22;10522;52.198;9.890;2022-07-17T09:56:20;21.90;99.90
20722;DHT22;10522;52.198;9.890;2022-07-17T09:58:52;22.20;99.90
20722;DHT22;10522;52.198;9.890;2022-07-17T10:01:18;22.30;99.90
20722;DHT22;10522;52.198;9.890;2022-07-17T10:03:44;22.20;99.90
20722;DHT22;10522;52.198;9.890;2022-07-17T10:06:11;22.00;99.90
20722;DHT22;10522;52.198;9.890;2022-07-17T10:08:37;22.50;99.90
20722;DHT22;10522;52.198;9.890;2022-07-17T10:11:05;22.40;99.90
20722;DHT22;10522;52.198;9.890;2022-07-17T10:13:31;22.20;99.90
20722;DHT22;10522;52.198;9.890;2022-07-17T10:15:58;22.30;99.90
20722;DHT22;10522;52.198;9.890;2022-07-17T10:18:34;22.40;99.90
20722;DHT22;10522;52.198;9.890;2022-07-17T10:21:27;22.00;99.90
20722;DHT22;10522;52.198;9.890;2022-07-17T10:26:39;22.90;99.90
20722;DHT22;10522;52.198;9.890;2022-07-17T10:29:25;22.70;99.90
20722;DHT22;10522;52.198;9.890;2022-07-17T10:31:51;22.70;99.90
20722;DHT22;10522;52.198;9.890;2022-07-17T10:34:18;22.60;99.90
20722;DHT22;10522;52.198;9.890;2022-07-17T10:36:44;22.90;99.90
20722;DHT22;10522;52.198;9.890;2022-07-17T10:39:15;23.00;99.90
20722;DHT22;10522;52.198;9.890;2022-07-17T10:41:41;22.90;99.90
20722;DHT22;10522;52.198;9.890;2022-07-17T10:44:07;22.90;99.90
20722;DHT22;10522;52.198;9.890;2022-07-17T10:46:33;23.40;99.90
20722;DHT22;10522;52.198;9.890;2022-07-17T10:49:03;23.50;99.90
20722;DHT22;10522;52.198;9.890;2022-07-17T10:51:30;23.30;99.90
20722;DHT22;10522;52.198;9.890;2022-07-17T10:53:57;23.60;99.90
20722;DHT22;10522;52.198;9.890;2022-07-17T10:56:24;23.40;99.90
20722;DHT22;10522;52.198;9.890;2022-07-17T10:58:51;23.60;99.90
20722;DHT22;10522;52.198;9.890;2022-07-17T11:01:18;23.50;99.90
20722;DHT22;10522;52.198;9.890;2022-07-17T11:03:50;23.20;99.90
20722;DHT22;10522;52.198;9.890;2022-07-17T11:08:54;23.90;99.90
20722;DHT22;10522;52.198;9.890;2022-07-17T11:11:23;24.40;99.90
20722;DHT22;10522;52.198;9.890;2022-07-17T11:13:49;24.20;99.90
20722;DHT22;10522;52.198;9.890;2022-07-17T11:16:26;24.30;99.90
20722;DHT22;10522;52.198;9.890;2022-07-17T11:18:51;24.20;99.90
20722;DHT22;10522;52.198;9.890;2022-07-17T11:21:17;24.20;99.90
20722;DHT22;10522;52.198;9.890;2022-07-17T11:23:51;24.30;99.90
20722;DHT22;10522;52.198;9.890;2022-07-17T11:26:18;24.10;99.90
20722;DHT22;10522;52.198;9.890;2022-07-17T11:28:44;24.00;99.90
20722;DHT22;10522;52.198;9.890;2022-07-17T11:31:19;24.10;99.90
20722;DHT22;10522;52.198;9.890;2022-07-17T11:33:50;24.40;99.90
20722;DHT22;10522;52.198;9.890;2022-07-17T11:36:23;24.40;99.90
20722;DHT22;10522;52.198;9.890;2022-07-17T11:38:50;24.50;99.90
20722;DHT22;10522;52.198;9.890;2022-07-17T11:41:16;24.40;99.90
20722;DHT22;10522;52.198;9.890;2022-07-17T11:43:43;24.50;99.90
20722;DHT22;10522;52.198;9.890;2022-07-17T11:46:08;24.70;99.90
20722;DHT22;10522;52.198;9.890;2022-07-17T11:48:34;24.70;99.90
20722;DHT22;10522;52.198;9.890;2022-07-17T11:51:00;24.80;99.90
20722;DHT22;10522;52.198;9.890;2022-07-17T11:53:36;25.10;99.90
20722;DHT22;10522;52.198;9.890;2022-07-17T11:56:03;24.80;99.90
20722;DHT22;10522;52.198;9.890;2022-07-17T11:58:43;25.00;99.90
20722;DHT22;10522;52.198;9.890;2022-07-17T12:01:09;25.20;99.90
20722;DHT22;10522;52.198;9.890;2022-07-17T12:03:35;25.20;99.90
20722;DHT22;10522;52.198;9.890;2022-07-17T12:06:00;25.20;99.90
20722;DHT22;10522;52.198;9.890;2022-07-17T12:08:26;25.20;99.90
20722;DHT22;10522;52.198;9.890;2022-07-17T12:11:06;24.80;99.90
20722;DHT22;10522;52.198;9.890;2022-07-17T12:13:42;25.00;99.90
20722;DHT22;10522;52.198;9.890;2022-07-17T12:16:29;24.90;99.90
20722;DHT22;10522;52.198;9.890;2022-07-17T12:19:00;24.70;99.90
20722;DHT22;10522;52.198;9.890;2022-07-17T12:21:29;24.90;99.90
20722;DHT22;10522;52.198;9.890;2022-07-17T12:24:01;25.00;99.90
20722;DHT22;10522;52.198;9.890;2022-07-17T12:26:27;25.30;99.90
20722;DHT22;10522;52.198;9.890;2022-07-17T12:28:53;25.50;99.90
20722;DHT22;10522;52.198;9.890;2022-07-17T12:31:19;25.30;99.90
20722;DHT22;10522;52.198;9.890;2022-07-17T12:33:45;25.50;99.90
20722;DHT22;10522;52.198;9.890;2022-07-17T12:36:11;25.60;99.90
20722;DHT22;10522;52.198;9.890;2022-07-17T12:38:37;25.80;99.90
20722;DHT22;10522;52.198;9.890;2022-07-17T12:41:02;25.70;99.90
20722;DHT22;10522;52.198;9.890;2022-07-17T12:43:28;25.20;99.90
20722;DHT22;10522;52.198;9.890;2022-07-17T12:45:54;25.00;99.90
20722;DHT22;10522;52.198;9.890;2022-07-17T12:48:19;25.40;99.90
20722;DHT22;10522;52.198;9.890;2022-07-17T12:50:45;25.90;99.90
20722;DHT22;10522;52.198;9.890;2022-07-17T12:53:11;26.10;99.90
20722;DHT22;10522;52.198;9.890;2022-07-17T12:55:36;26.00;99.90
20722;DHT22;10522;52.198;9.890;2022-07-17T12:58:03;26.30;99.60
20722;DHT22;10522;52.198;9.890;2022-07-17T13:00:29;26.40;97.60
20722;DHT22;10522;52.198;9.890;2022-07-17T13:02:55;26.40;98.90
20722;DHT22;10522;52.198;9.890;2022-07-17T13:05:20;26.80;98.60
20722;DHT22;10522;52.198;9.890;2022-07-17T13:07:46;26.90;98.90
20722;DHT22;10522;52.198;9.890;2022-07-17T13:10:12;26.60;97.70
20722;DHT22;10522;52.198;9.890;2022-07-17T13:12:37;26.40;98.10
20722;DHT22;10522;52.198;9.890;2022-07-17T13:15:04;26.60;98.40
20722;DHT22;10522;52.198;9.890;2022-07-17T13:17:29;26.60;96.80
20722;DHT22;10522;52.198;9.890;2022-07-17T13:19:55;26.60;97.40
20722;DHT22;10522;52.198;9.890;2022-07-17T13:22:20;26.20;98.00
20722;DHT22;10522;52.198;9.890;2022-07-17T13:24:46;26.30;98.70
20722;DHT22;10522;52.198;9.890;2022-07-17T13:27:11;26.40;97.60
20722;DHT22;10522;52.198;9.890;2022-07-17T13:29:37;26.00;97.80
20722;DHT22;10522;52.198;9.890;2022-07-17T13:32:04;26.00;97.60
20722;DHT22;10522;52.198;9.890;2022-07-17T13:34:29;26.40;98.20
20722;DHT22;10522;52.198;9.890;2022-07-17T13:36:55;26.70;97.70
20722;DHT22;10522;52.198;9.890;2022-07-17T13:39:20;26.90;98.60
20722;DHT22;10522;52.198;9.890;2022-07-17T13:41:46;27.00;97.10
20722;DHT22;10522;52.198;9.890;2022-07-17T13:44:13;27.30;97.10
20722;DHT22;10522;52.198;9.890;2022-07-17T13:46:38;27.50;95.30
20722;DHT22;10522;52.198;9.890;2022-07-17T13:49:04;27.10;96.40
20722;DHT22;10522;52.198;9.890;2022-07-17T13:51:29;27.40;96.80
20722;DHT22;10522;52.198;9.890;2022-07-17T13:53:56;27.70;96.50
20722;DHT22;10522;52.198;9.890;2022-07-17T13:56:22;27.50;96.00
20722;DHT22;10522;52.198;9.890;2022-07-17T13:58:47;27.20;94.60
20722;DHT22;10522;52.198;9.890;2022-07-17T14:01:13;26.90;94.10
20722;DHT22;10522;52.198;9.890;2022-07-17T14:03:39;26.90;94.70
20722;DHT22;10522;52.198;9.890;2022-07-17T14:06:05;27.20;95.20
20722;DHT22;10522;52.198;9.890;2022-07-17T14:08:30;27.50;95.30
20722;DHT22;10522;52.198;9.890;2022-07-17T14:10:56;27.60;93.80
20722;DHT22;10522;52.198;9.890;2022-07-17T14:13:21;27.50;94.70
20722;DHT22;10522;52.198;9.890;2022-07-17T14:15:47;27.70;95.10
20722;DHT22;10522;52.198;9.890;2022-07-17T14:18:12;27.20;93.30
20722;DHT22;10522;52.198;9.890;2022-07-17T14:20:38;27.20;93.30
20722;DHT22;10522;52.198;9.890;2022-07-17T14:23:03;27.30;92.80
20722;DHT22;10522;52.198;9.890;2022-07-17T14:25:29;27.80;94.00
20722;DHT22;10522;52.198;9.890;2022-07-17T14:27:55;28.10;94.90
20722;DHT22;10522;52.198;9.890;2022-07-17T14:30:22;28.00;92.40
20722;DHT22;10522;52.198;9.890;2022-07-17T14:32:47;28.00;92.60
20722;DHT22;10522;52.198;9.890;2022-07-17T14:35:13;27.70;92.30
20722;DHT22;10522;52.198;9.890;2022-07-17T14:37:38;27.70;91.40
20722;DHT22;10522;52.198;9.890;2022-07-17T14:40:04;27.60;92.80
20722;DHT22;10522;52.198;9.890;2022-07-17T14:42:30;27.70;92.10
20722;DHT22;10522;52.198;9.890;2022-07-17T14:44:59;27.80;91.70
20722;DHT22;10522;52.198;9.890;2022-07-17T14:47:25;28.40;92.20
20722;DHT22;10522;52.198;9.890;2022-07-17T14:49:51;27.70;91.50
20722;DHT22;10522;52.198;9.890;2022-07-17T14:52:16;27.40;91.90
20722;DHT22;10522;52.198;9.890;2022-07-17T14:54:42;28.00;92.90
20722;DHT22;10522;52.198;9.890;2022-07-17T14:57:07;28.20;92.80
20722;DHT22;10522;52.198;9.890;2022-07-17T14:59:33;27.90;92.50
20722;DHT22;10522;52.198;9.890;2022-07-17T15:01:59;28.10;92.90
20722;DHT22;10522;52.198;9.890;2022-07-17T15:04:25;28.30;92.90
20722;DHT22;10522;52.198;9.890;2022-07-17T15:06:50;28.60;92.90
20722;DHT22;10522;52.198;9.890;2022-07-17T15:09:16;28.30;92.20
20722;DHT22;10522;52.198;9.890;2022-07-17T15:11:42;28.30;93.00
20722;DHT22;10522;52.198;9.890;2022-07-17T15:14:07;28.90;92.50
20722;DHT22;10522;52.198;9.890;2022-07-17T15:16:33;28.90;92.30
20722;DHT22;10522;52.198;9.890;2022-07-17T15:18:58;28.50;91.60
20722;DHT22;10522;52.198;9.890;2022-07-17T15:21:24;28.30;91.30
20722;DHT22;10522;52.198;9.890;2022-07-17T15:23:50;28.30;91.20
20722;DHT22;10522;52.198;9.890;2022-07-17T15:26:15;28.50;92.90
20722;DHT22;10522;52.198;9.890;2022-07-17T15:28:40;28.40;91.80
20722;DHT22;10522;52.198;9.890;2022-07-17T15:31:06;28.20;92.10
20722;DHT22;10522;52.198;9.890;2022-07-17T15:33:32;28.10;93.00
20722;DHT22;10522;52.198;9.890;2022-07-17T15:35:58;28.40;92.60